Flight Track Log - Related Links

Times and Time Zones

All times are in EDT time to prevent confusion due to time zone crossing. See the UAL4380 flight status page for this flight to view local times or setup timezone preferences in your user account.

Time Position Orientation Groundspeed Altitude Reporting Facility
EDT Latitude Longitude Course Direction KTS MPH feet Rate Location/Type
Wed 08:58:33 AM 29.9786 -95.2981 346° North 175 201 1,000  Level Houston Center
Wed 08:59:28 AM 30.0178 -95.2669 35° Northeast 260 299 2,300 1,404 Climbing Houston Center
Wed 09:00:07 AM 30.0617 -95.2756 350° North 268 308 3,200 1,645 Climbing Houston Center
Wed 09:00:30 AM 30.0994 -95.2883 344° North 302 348 4,000 2,262 Climbing Houston Center
Wed 09:01:00 AM 30.2613 -95.4062 349° North  Level FlightAware Approximate
Wed 09:01:08 AM 30.1439 -95.3000 347° North 295 339 5,500  Level Houston Center
Wed 09:02:00 AM 30.3548 -95.4270 349° North  Level FlightAware Approximate
Wed 09:02:10 AM 30.2294 -95.3197 349° North 312 359 7,600  Level Houston Center
Wed 09:03:00 AM 30.4476 -95.4517 346° North  Level FlightAware Approximate
Wed 09:03:12 AM 30.3092 -95.3561 338° Northwest 312 359 9,800  Level Houston Center
Wed 09:04:14 AM 30.4064 -95.4000 339° North 311 358 11,400 1,306 Climbing Houston Center
Wed 09:05:16 AM 30.4972 -95.4397 339° North 344 396 12,500 1,024 Climbing Houston Center
Wed 09:06:17 AM 30.5931 -95.4850 338° Northwest 367 422 13,500 976 Climbing Houston Center
Wed 09:07:19 AM 30.6983 -95.5133 347° North 384 442 14,500 968 Climbing Houston Center
Wed 09:08:21 AM 30.8053 -95.5369 349° North 386 444 15,500 968 Climbing Houston Center
Wed 09:09:23 AM 30.9158 -95.5611 349° North 395 455 16,500 927 Climbing Houston Center
Wed 09:10:24 AM 31.0286 -95.5875 349° North 405 466 17,400 1,073 Climbing Houston Center
Wed 09:11:26 AM 31.1675 -95.6183 349° North 416 479 18,700 756 Climbing Houston Center
Wed 09:12:31 AM 31.2803 -95.6439 349° North 427 491 19,000 144 Climbing Fort Worth Center
Wed 09:13:31 AM 31.4083 -95.6950 341° North 423 487 19,000  Level Fort Worth Center
Wed 09:14:31 AM 31.5136 -95.7661 330° Northwest 428 493 19,000  Level Fort Worth Center
Wed 09:15:31 AM 31.6211 -95.8372 331° Northwest 440 506 19,000  Level Fort Worth Center
Wed 09:16:31 AM 31.7242 -95.9114 329° Northwest 440 506 19,000 -650 Level Fort Worth Center
Wed 09:17:31 AM 31.8336 -95.9806 332° Northwest 445 512 17,700 -1,550 Descending Fort Worth Center
Wed 09:18:31 AM 31.9408 -96.0547 330° Northwest 439 505 15,900 -2,100 Descending Fort Worth Center
Wed 09:19:31 AM 32.0292 -96.1194 328° Northwest 413 475 13,500 -2,550 Descending Fort Worth Center
Wed 09:20:31 AM 32.1322 -96.1794 334° Northwest 407 468 10,800 -1,800 Descending Fort Worth Center
Wed 09:21:31 AM 32.2183 -96.2372 330° Northwest 399 459 9,900 -400 Descending Fort Worth Center
Wed 09:22:31 AM 32.3233 -96.3022 332° Northwest 389 448 10,000 50 Climbing Fort Worth Center
Wed 09:23:31 AM 32.4178 -96.3575 334° Northwest 383 441 10,000  Level Fort Worth Center
Wed 09:24:31 AM 32.5142 -96.4181 332° Northwest 378 435 10,000 -250 Level Fort Worth Center
Wed 09:25:31 AM 32.6022 -96.4714 333° Northwest 371 427 9,500 -1,150 Descending Fort Worth Center
Wed 09:26:31 AM 32.6778 -96.5125 335° Northwest 310 357 7,700 -1,250 Descending Fort Worth Center
Wed 09:27:31 AM 32.7275 -96.4650 39° Northeast 208 239 7,000 -1,250 Descending Fort Worth Center
Wed 09:28:31 AM 32.6858 -96.4631 178° South 89 102 5,200 -1,000 Descending Fort Worth Center
Wed 09:29:31 AM 32.6611 -96.5175 242° Southwest 135 155 5,000 -250 Descending Fort Worth Center
Wed 09:30:31 AM 32.6636 -96.5817 273° West 196 226 4,700 -1,200 Descending Fort Worth Center
Wed 09:31:31 AM 32.6850 -96.6656 287° West 236 272 2,600 -1,150 Descending Fort Worth Center
Wed 09:32:31 AM 32.7167 -96.7072 312° West 212 244 2,400 -50 Descending Fort Worth Center
Wed 09:33:31 AM 32.7481 -96.7464 314° West 166 191 2,500 100 Climbing Fort Worth Center

Login

Don't have an account? Register now (free) for customized features, flight alerts, and more!